sensor_id;sensor_type;location;lat;lon;timestamp;pressure;altitude;pressure_sealevel;temperature;humidity
3844;BME280;1937;51.444;6.484;2023-01-27T00:01:15;67317.13;;;4.91;91.69
3844;BME280;1937;51.444;6.484;2023-01-27T00:03:44;67336.91;;;5.08;91.53
3844;BME280;1937;51.444;6.484;2023-01-27T00:06:13;67305.91;;;4.94;91.55
3844;BME280;1937;51.444;6.484;2023-01-27T00:08:41;67313.56;;;4.94;91.16
3844;BME280;1937;51.444;6.484;2023-01-27T00:11:09;67310.19;;;4.96;91.19
3844;BME280;1937;51.444;6.484;2023-01-27T00:13:56;67320.44;;;5.07;90.66
3844;BME280;1937;51.444;6.484;2023-01-27T00:16:26;67258.53;;;4.84;91.22
3844;BME280;1937;51.444;6.484;2023-01-27T00:18:55;67261.06;;;5.02;90.44
3844;BME280;1937;51.444;6.484;2023-01-27T00:21:24;67271.25;;;5.02;90.25
3844;BME280;1937;51.444;6.484;2023-01-27T00:24:12;67241.06;;;4.87;90.57
3844;BME280;1937;51.444;6.484;2023-01-27T00:26:59;67245.09;;;4.79;90.46
3844;BME280;1937;51.444;6.484;2023-01-27T00:29:28;67237.72;;;4.88;89.82
3844;BME280;1937;51.444;6.484;2023-01-27T00:31:57;67220.53;;;4.82;89.39
3844;BME280;1937;51.444;6.484;2023-01-27T00:34:44;67206.13;;;4.74;89.12
3844;BME280;1937;51.444;6.484;2023-01-27T00:37:12;67180.78;;;4.90;88.89
3844;BME280;1937;51.444;6.484;2023-01-27T00:39:42;67167.34;;;4.85;89.03
3844;BME280;1937;51.444;6.484;2023-01-27T00:42:10;67205.31;;;4.76;89.67
3844;BME280;1937;51.444;6.484;2023-01-27T00:44:39;67221.00;;;4.89;89.84
3844;BME280;1937;51.444;6.484;2023-01-27T00:47:30;67210.28;;;5.00;89.35
3844;BME280;1937;51.444;6.484;2023-01-27T00:49:58;67197.13;;;4.86;90.43
3844;BME280;1937;51.444;6.484;2023-01-27T00:52:27;67223.22;;;4.87;91.07
3844;BME280;1937;51.444;6.484;2023-01-27T00:54:56;67223.44;;;4.85;91.00
3844;BME280;1937;51.444;6.484;2023-01-27T00:57:24;67202.06;;;4.71;91.83
3844;BME280;1937;51.444;6.484;2023-01-27T00:59:53;67221.13;;;4.83;91.18
3844;BME280;1937;51.444;6.484;2023-01-27T01:02:22;67244.63;;;4.83;91.33
3844;BME280;1937;51.444;6.484;2023-01-27T01:04:52;67232.97;;;4.91;91.55
3844;BME280;1937;51.444;6.484;2023-01-27T01:07:20;67249.97;;;4.81;92.08
3844;BME280;1937;51.444;6.484;2023-01-27T01:09:49;67234.44;;;4.83;91.88
3844;BME280;1937;51.444;6.484;2023-01-27T01:12:17;67239.34;;;4.68;91.74
3844;BME280;1937;51.444;6.484;2023-01-27T01:14:45;67244.66;;;4.66;93.05
3844;BME280;1937;51.444;6.484;2023-01-27T01:17:13;67244.72;;;4.77;92.53
3844;BME280;1937;51.444;6.484;2023-01-27T01:19:42;67262.22;;;4.74;92.14
3844;BME280;1937;51.444;6.484;2023-01-27T01:22:12;67237.75;;;4.71;92.00
3844;BME280;1937;51.444;6.484;2023-01-27T01:24:41;67203.75;;;4.61;92.46
3844;BME280;1937;51.444;6.484;2023-01-27T01:27:09;67245.31;;;4.60;93.19
3844;BME280;1937;51.444;6.484;2023-01-27T01:29:37;67221.53;;;4.50;92.91
3844;BME280;1937;51.444;6.484;2023-01-27T01:32:07;67267.69;;;4.59;93.35
3844;BME280;1937;51.444;6.484;2023-01-27T01:34:37;67276.41;;;4.67;92.37
3844;BME280;1937;51.444;6.484;2023-01-27T01:37:06;67242.88;;;4.53;92.81
3844;BME280;1937;51.444;6.484;2023-01-27T01:39:36;67235.50;;;4.44;93.40
3844;BME280;1937;51.444;6.484;2023-01-27T01:42:04;67276.88;;;4.63;92.67
3844;BME280;1937;51.444;6.484;2023-01-27T01:44:33;67258.31;;;4.58;92.64
3844;BME280;1937;51.444;6.484;2023-01-27T01:47:01;67240.59;;;4.62;92.47
3844;BME280;1937;51.444;6.484;2023-01-27T01:49:34;67248.31;;;4.56;93.59
3844;BME280;1937;51.444;6.484;2023-01-27T01:52:08;67257.56;;;4.52;93.50
3844;BME280;1937;51.444;6.484;2023-01-27T01:54:41;67269.06;;;4.58;93.20
3844;BME280;1937;51.444;6.484;2023-01-27T01:57:12;67217.09;;;4.44;93.34
3844;BME280;1937;51.444;6.484;2023-01-27T01:59:45;67235.06;;;4.48;93.29
3844;BME280;1937;51.444;6.484;2023-01-27T02:02:17;67280.06;;;4.57;93.16
3844;BME280;1937;51.444;6.484;2023-01-27T02:04:52;67260.91;;;4.51;93.67
3844;BME280;1937;51.444;6.484;2023-01-27T02:07:26;67268.13;;;4.55;93.55
3844;BME280;1937;51.444;6.484;2023-01-27T02:10:00;67283.56;;;4.60;93.67
3844;BME280;1937;51.444;6.484;2023-01-27T02:12:29;67268.72;;;4.56;92.93
3844;BME280;1937;51.444;6.484;2023-01-27T02:14:57;67248.56;;;4.36;92.45
3844;BME280;1937;51.444;6.484;2023-01-27T02:17:26;67248.13;;;4.40;92.88
3844;BME280;1937;51.444;6.484;2023-01-27T02:20:01;67259.31;;;4.54;92.72
3844;BME280;1937;51.444;6.484;2023-01-27T02:22:38;67215.59;;;4.40;92.43
3844;BME280;1937;51.444;6.484;2023-01-27T02:25:14;67155.63;;;4.24;93.18
3844;BME280;1937;51.444;6.484;2023-01-27T02:27:46;67234.16;;;4.28;92.99
3844;BME280;1937;51.444;6.484;2023-01-27T02:30:14;67174.19;;;4.29;92.70
3844;BME280;1937;51.444;6.484;2023-01-27T02:32:45;67220.88;;;4.38;92.75
3844;BME280;1937;51.444;6.484;2023-01-27T02:35:19;67154.59;;;4.27;91.63
3844;BME280;1937;51.444;6.484;2023-01-27T02:37:51;67178.75;;;4.39;91.57
3844;BME280;1937;51.444;6.484;2023-01-27T02:40:20;67207.13;;;4.42;90.95
3844;BME280;1937;51.444;6.484;2023-01-27T02:42:51;67130.00;;;4.19;91.49
3844;BME280;1937;51.444;6.484;2023-01-27T02:45:21;67147.41;;;4.23;91.95
3844;BME280;1937;51.444;6.484;2023-01-27T02:47:50;67136.28;;;4.20;91.47
3844;BME280;1937;51.444;6.484;2023-01-27T02:50:19;67128.38;;;4.11;91.72
3844;BME280;1937;51.444;6.484;2023-01-27T02:52:48;67112.78;;;4.02;91.86
3844;BME280;1937;51.444;6.484;2023-01-27T02:55:16;67177.19;;;4.07;92.16
3844;BME280;1937;51.444;6.484;2023-01-27T02:57:44;67139.72;;;4.12;92.25
3844;BME280;1937;51.444;6.484;2023-01-27T03:00:14;67123.06;;;3.95;92.05
3844;BME280;1937;51.444;6.484;2023-01-27T03:02:42;67130.41;;;4.04;92.19
3844;BME280;1937;51.444;6.484;2023-01-27T03:05:11;67152.44;;;4.12;91.73
3844;BME280;1937;51.444;6.484;2023-01-27T03:07:40;67169.25;;;3.98;92.70
3844;BME280;1937;51.444;6.484;2023-01-27T03:10:10;67106.94;;;3.86;93.76
3844;BME280;1937;51.444;6.484;2023-01-27T03:12:38;67114.22;;;3.65;94.50
3844;BME280;1937;51.444;6.484;2023-01-27T03:15:09;67151.84;;;3.65;94.89
3844;BME280;1937;51.444;6.484;2023-01-27T03:18:04;67191.38;;;3.82;94.14
3844;BME280;1937;51.444;6.484;2023-01-27T03:20:44;67198.31;;;3.94;93.59
3844;BME280;1937;51.444;6.484;2023-01-27T03:23:13;67118.22;;;3.76;93.51
3844;BME280;1937;51.444;6.484;2023-01-27T03:25:43;67152.19;;;3.67;93.66
3844;BME280;1937;51.444;6.484;2023-01-27T03:28:13;67111.47;;;3.67;93.47
3844;BME280;1937;51.444;6.484;2023-01-27T03:30:42;67145.41;;;3.77;92.74
3844;BME280;1937;51.444;6.484;2023-01-27T03:33:11;67177.78;;;3.90;92.50
3844;BME280;1937;51.444;6.484;2023-01-27T03:35:39;67120.63;;;3.89;92.39
3844;BME280;1937;51.444;6.484;2023-01-27T03:38:15;67114.72;;;3.72;92.71
3844;BME280;1937;51.444;6.484;2023-01-27T03:41:04;67112.53;;;3.93;92.27
3844;BME280;1937;51.444;6.484;2023-01-27T03:43:51;67124.59;;;3.99;91.63
3844;BME280;1937;51.444;6.484;2023-01-27T03:46:37;67094.84;;;3.97;91.96
3844;BME280;1937;51.444;6.484;2023-01-27T03:49:06;67101.63;;;3.88;92.61
3844;BME280;1937;51.444;6.484;2023-01-27T03:51:34;67110.72;;;3.80;93.01
3844;BME280;1937;51.444;6.484;2023-01-27T03:54:03;67127.97;;;3.62;95.24
3844;BME280;1937;51.444;6.484;2023-01-27T03:56:32;67155.91;;;3.68;95.69
3844;BME280;1937;51.444;6.484;2023-01-27T03:59:00;67181.63;;;3.60;96.57
3844;BME280;1937;51.444;6.484;2023-01-27T04:01:28;67224.91;;;3.78;96.35
3844;BME280;1937;51.444;6.484;2023-01-27T04:03:56;67203.09;;;3.67;96.46
3844;BME280;1937;51.444;6.484;2023-01-27T04:06:45;67263.84;;;3.83;96.40
3844;BME280;1937;51.444;6.484;2023-01-27T04:09:22;67228.53;;;3.67;97.29
3844;BME280;1937;51.444;6.484;2023-01-27T04:11:51;67249.69;;;3.66;97.03
3844;BME280;1937;51.444;6.484;2023-01-27T04:14:23;67254.34;;;3.52;98.51
3844;BME280;1937;51.444;6.484;2023-01-27T04:16:53;67243.13;;;3.56;99.23
3844;BME280;1937;51.444;6.484;2023-01-27T04:19:22;67322.53;;;3.63;99.46
3844;BME280;1937;51.444;6.484;2023-01-27T04:21:55;67303.13;;;3.42;99.83
3844;BME280;1937;51.444;6.484;2023-01-27T04:24:24;67329.81;;;3.60;99.87
3844;BME280;1937;51.444;6.484;2023-01-27T04:26:57;67337.88;;;3.56;99.84
3844;BME280;1937;51.444;6.484;2023-01-27T04:29:29;67395.03;;;3.57;100.00
3844;BME280;1937;51.444;6.484;2023-01-27T04:31:58;67390.28;;;3.60;100.00
3844;BME280;1937;51.444;6.484;2023-01-27T04:34:27;67365.66;;;3.58;100.00
3844;BME280;1937;51.444;6.484;2023-01-27T04:36:57;67404.59;;;3.57;100.00
3844;BME280;1937;51.444;6.484;2023-01-27T04:39:26;67423.38;;;3.60;100.00
3844;BME280;1937;51.444;6.484;2023-01-27T04:41:54;67405.78;;;3.27;100.00
3844;BME280;1937;51.444;6.484;2023-01-27T04:44:22;67456.38;;;3.42;100.00
3844;BME280;1937;51.444;6.484;2023-01-27T04:46:51;67476.09;;;3.48;100.00
3844;BME280;1937;51.444;6.484;2023-01-27T04:49:20;67479.03;;;3.51;100.00
3844;BME280;1937;51.444;6.484;2023-01-27T04:51:48;67477.88;;;3.43;100.00
3844;BME280;1937;51.444;6.484;2023-01-27T04:54:19;67449.78;;;3.32;100.00
3844;BME280;1937;51.444;6.484;2023-01-27T04:56:56;67453.22;;;3.42;100.00
3844;BME280;1937;51.444;6.484;2023-01-27T04:59:25;67483.38;;;3.46;100.00
3844;BME280;1937;51.444;6.484;2023-01-27T05:01:54;67484.19;;;3.38;100.00
3844;BME280;1937;51.444;6.484;2023-01-27T05:04:22;67534.28;;;3.39;100.00
3844;BME280;1937;51.444;6.484;2023-01-27T05:06:53;67478.63;;;3.48;100.00
3844;BME280;1937;51.444;6.484;2023-01-27T05:09:23;67575.31;;;3.48;100.00
3844;BME280;1937;51.444;6.484;2023-01-27T05:11:51;67546.75;;;3.48;100.00
3844;BME280;1937;51.444;6.484;2023-01-27T05:14:19;67517.63;;;3.47;100.00
3844;BME280;1937;51.444;6.484;2023-01-27T05:16:49;67520.63;;;3.29;100.00
3844;BME280;1937;51.444;6.484;2023-01-27T05:19:18;67554.03;;;3.39;100.00
3844;BME280;1937;51.444;6.484;2023-01-27T05:21:46;67504.19;;;3.28;100.00
3844;BME280;1937;51.444;6.484;2023-01-27T05:24:14;67514.97;;;3.29;100.00
3844;BME280;1937;51.444;6.484;2023-01-27T05:26:44;67524.97;;;3.18;100.00
3844;BME280;1937;51.444;6.484;2023-01-27T05:29:13;67517.34;;;3.18;100.00
3844;BME280;1937;51.444;6.484;2023-01-27T05:31:41;67554.50;;;3.21;100.00
3844;BME280;1937;51.444;6.484;2023-01-27T05:34:11;67538.25;;;3.18;100.00
3844;BME280;1937;51.444;6.484;2023-01-27T05:36:39;67596.53;;;3.27;100.00
3844;BME280;1937;51.444;6.484;2023-01-27T05:39:10;67613.56;;;3.35;100.00
3844;BME280;1937;51.444;6.484;2023-01-27T05:41:38;67580.28;;;3.30;100.00
3844;BME280;1937;51.444;6.484;2023-01-27T05:44:10;67568.97;;;3.23;100.00
3844;BME280;1937;51.444;6.484;2023-01-27T05:46:40;67596.88;;;3.43;100.00
3844;BME280;1937;51.444;6.484;2023-01-27T05:49:09;67599.06;;;3.40;100.00
3844;BME280;1937;51.444;6.484;2023-01-27T05:51:38;67617.59;;;3.52;100.00
3844;BME280;1937;51.444;6.484;2023-01-27T05:54:07;67611.97;;;3.38;100.00
3844;BME280;1937;51.444;6.484;2023-01-27T05:56:37;67631.69;;;3.51;100.00
3844;BME280;1937;51.444;6.484;2023-01-27T05:59:08;67644.56;;;3.62;100.00
3844;BME280;1937;51.444;6.484;2023-01-27T06:01:38;67643.75;;;3.77;100.00
3844;BME280;1937;51.444;6.484;2023-01-27T06:04:08;67623.16;;;3.79;100.00
3844;BME280;1937;51.444;6.484;2023-01-27T06:06:37;67585.44;;;3.68;99.92
3844;BME280;1937;51.444;6.484;2023-01-27T06:09:05;67572.72;;;3.61;100.00
3844;BME280;1937;51.444;6.484;2023-01-27T06:11:34;67604.63;;;3.67;100.00
3844;BME280;1937;51.444;6.484;2023-01-27T06:14:02;67589.13;;;3.76;100.00
3844;BME280;1937;51.444;6.484;2023-01-27T06:16:32;67590.31;;;3.70;100.00
3844;BME280;1937;51.444;6.484;2023-01-27T06:19:00;67589.47;;;3.85;100.00
3844;BME280;1937;51.444;6.484;2023-01-27T06:21:28;67598.06;;;3.88;99.96
3844;BME280;1937;51.444;6.484;2023-01-27T06:23:56;67566.41;;;3.74;99.72
3844;BME280;1937;51.444;6.484;2023-01-27T06:26:25;67560.78;;;3.60;100.00
3844;BME280;1937;51.444;6.484;2023-01-27T06:28:54;67610.09;;;3.69;100.00
3844;BME280;1937;51.444;6.484;2023-01-27T06:31:23;67537.66;;;3.68;100.00
3844;BME280;1937;51.444;6.484;2023-01-27T06:33:54;67598.53;;;3.70;100.00
3844;BME280;1937;51.444;6.484;2023-01-27T06:36:23;67587.34;;;3.81;100.00
3844;BME280;1937;51.444;6.484;2023-01-27T06:38:51;67593.84;;;3.66;100.00
3844;BME280;1937;51.444;6.484;2023-01-27T06:41:19;67609.31;;;3.71;100.00
3844;BME280;1937;51.444;6.484;2023-01-27T06:43:47;67591.44;;;3.78;100.00
3844;BME280;1937;51.444;6.484;2023-01-27T06:46:16;67566.22;;;3.76;100.00
3844;BME280;1937;51.444;6.484;2023-01-27T06:48:44;67585.41;;;3.75;100.00
3844;BME280;1937;51.444;6.484;2023-01-27T06:51:13;67602.00;;;3.87;99.68
3844;BME280;1937;51.444;6.484;2023-01-27T06:53:42;67604.97;;;3.83;100.00
3844;BME280;1937;51.444;6.484;2023-01-27T06:56:10;67611.59;;;3.86;99.63
3844;BME280;1937;51.444;6.484;2023-01-27T06:58:38;67534.69;;;3.72;100.00
3844;BME280;1937;51.444;6.484;2023-01-27T07:01:07;67617.88;;;3.81;100.00
3844;BME280;1937;51.444;6.484;2023-01-27T07:03:35;67599.66;;;3.78;99.91
3844;BME280;1937;51.444;6.484;2023-01-27T07:06:04;67648.41;;;3.87;100.00
3844;BME280;1937;51.444;6.484;2023-01-27T07:08:35;67602.38;;;3.89;99.84
3844;BME280;1937;51.444;6.484;2023-01-27T07:11:04;67635.69;;;3.87;99.94
3844;BME280;1937;51.444;6.484;2023-01-27T07:13:32;67604.47;;;4.00;99.14
3844;BME280;1937;51.444;6.484;2023-01-27T07:16:01;67585.84;;;4.01;98.76
3844;BME280;1937;51.444;6.484;2023-01-27T07:18:30;67584.13;;;4.00;98.06
3844;BME280;1937;51.444;6.484;2023-01-27T07:20:58;67533.69;;;3.83;99.37
3844;BME280;1937;51.444;6.484;2023-01-27T07:23:26;67564.16;;;3.89;98.32
3844;BME280;1937;51.444;6.484;2023-01-27T07:25:56;67535.66;;;3.76;98.84
3844;BME280;1937;51.444;6.484;2023-01-27T07:28:24;67552.88;;;3.82;98.95
3844;BME280;1937;51.444;6.484;2023-01-27T07:30:52;67578.25;;;3.95;98.40
3844;BME280;1937;51.444;6.484;2023-01-27T07:33:21;67512.03;;;3.95;98.18
3844;BME280;1937;51.444;6.484;2023-01-27T07:35:50;67542.41;;;3.97;97.83
3844;BME280;1937;51.444;6.484;2023-01-27T07:38:19;67527.47;;;4.06;97.38
3844;BME280;1937;51.444;6.484;2023-01-27T07:40:47;67501.66;;;3.97;97.39
3844;BME280;1937;51.444;6.484;2023-01-27T07:43:17;67555.47;;;4.06;97.31
3844;BME280;1937;51.444;6.484;2023-01-27T07:45:45;67527.13;;;3.97;97.71
3844;BME280;1937;51.444;6.484;2023-01-27T07:48:15;67559.88;;;4.19;97.19
3844;BME280;1937;51.444;6.484;2023-01-27T07:50:43;67506.31;;;4.01;97.48
3844;BME280;1937;51.444;6.484;2023-01-27T07:53:12;67518.50;;;4.00;97.99
3844;BME280;1937;51.444;6.484;2023-01-27T07:55:41;67517.06;;;4.08;97.23
3844;BME280;1937;51.444;6.484;2023-01-27T07:58:10;67536.84;;;4.07;97.89
3844;BME280;1937;51.444;6.484;2023-01-27T08:00:39;67552.44;;;4.23;97.42
3844;BME280;1937;51.444;6.484;2023-01-27T08:03:12;67508.66;;;4.03;97.90
3844;BME280;1937;51.444;6.484;2023-01-27T08:05:48;67539.56;;;4.12;97.62
3844;BME280;1937;51.444;6.484;2023-01-27T08:08:16;67569.25;;;4.27;97.29
3844;BME280;1937;51.444;6.484;2023-01-27T08:10:46;67497.84;;;4.09;97.39
3844;BME280;1937;51.444;6.484;2023-01-27T08:13:18;67547.78;;;4.12;98.53
3844;BME280;1937;51.444;6.484;2023-01-27T08:15:47;67555.25;;;4.08;98.41
3844;BME280;1937;51.444;6.484;2023-01-27T08:18:22;67542.47;;;4.15;98.09
3844;BME280;1937;51.444;6.484;2023-01-27T08:20:51;67597.47;;;4.25;98.19
3844;BME280;1937;51.444;6.484;2023-01-27T08:23:20;67543.09;;;4.08;98.70
3844;BME280;1937;51.444;6.484;2023-01-27T08:25:51;67531.97;;;4.05;99.07
3844;BME280;1937;51.444;6.484;2023-01-27T08:28:22;67586.41;;;4.08;99.13
3844;BME280;1937;51.444;6.484;2023-01-27T08:30:52;67581.25;;;4.22;98.55
3844;BME280;1937;51.444;6.484;2023-01-27T08:33:22;67615.16;;;4.20;98.28
3844;BME280;1937;51.444;6.484;2023-01-27T08:35:50;67573.50;;;4.04;98.89
3844;BME280;1937;51.444;6.484;2023-01-27T08:38:20;67574.47;;;4.07;99.27
3844;BME280;1937;51.444;6.484;2023-01-27T08:40:51;67614.22;;;4.10;99.45
3844;BME280;1937;51.444;6.484;2023-01-27T08:43:21;67622.03;;;4.15;99.13
3844;BME280;1937;51.444;6.484;2023-01-27T08:45:52;67618.03;;;4.29;98.81
3844;BME280;1937;51.444;6.484;2023-01-27T08:48:23;67641.31;;;4.38;98.10
3844;BME280;1937;51.444;6.484;2023-01-27T08:50:51;67566.47;;;4.35;97.73
3844;BME280;1937;51.444;6.484;2023-01-27T08:53:20;67635.00;;;4.44;97.42
3844;BME280;1937;51.444;6.484;2023-01-27T08:55:52;67584.66;;;4.38;97.67
3844;BME280;1937;51.444;6.484;2023-01-27T08:58:24;67605.44;;;4.40;97.78
3844;BME280;1937;51.444;6.484;2023-01-27T09:00:53;67589.19;;;4.37;97.57
3844;BME280;1937;51.444;6.484;2023-01-27T09:03:21;67614.78;;;4.48;97.66
3844;BME280;1937;51.444;6.484;2023-01-27T09:05:52;67558.63;;;4.31;97.66
3844;BME280;1937;51.444;6.484;2023-01-27T09:08:20;67612.38;;;4.29;98.46
3844;BME280;1937;51.444;6.484;2023-01-27T09:10:49;67601.31;;;4.37;98.51
3844;BME280;1937;51.444;6.484;2023-01-27T09:13:17;67590.28;;;4.51;97.39
3844;BME280;1937;51.444;6.484;2023-01-27T09:15:48;67592.69;;;4.40;98.07
3844;BME280;1937;51.444;6.484;2023-01-27T09:18:20;67598.91;;;4.48;97.98
3844;BME280;1937;51.444;6.484;2023-01-27T09:20:49;67575.03;;;4.45;97.62
3844;BME280;1937;51.444;6.484;2023-01-27T09:23:17;67537.16;;;4.23;97.94
3844;BME280;1937;51.444;6.484;2023-01-27T09:25:45;67672.97;;;4.59;98.24
3844;BME280;1937;51.444;6.484;2023-01-27T09:28:14;67694.00;;;4.84;96.64
3844;BME280;1937;51.444;6.484;2023-01-27T09:30:46;67578.06;;;4.59;96.68
3844;BME280;1937;51.444;6.484;2023-01-27T09:33:16;67621.88;;;4.72;97.04
3844;BME280;1937;51.444;6.484;2023-01-27T09:35:50;67656.72;;;4.87;96.06
3844;BME280;1937;51.444;6.484;2023-01-27T09:38:21;67595.41;;;4.76;95.61
3844;BME280;1937;51.444;6.484;2023-01-27T09:40:59;67601.03;;;4.83;95.49
3844;BME280;1937;51.444;6.484;2023-01-27T09:43:51;67590.00;;;4.91;95.53
3844;BME280;1937;51.444;6.484;2023-01-27T09:46:42;67519.13;;;4.74;95.58
3844;BME280;1937;51.444;6.484;2023-01-27T09:49:24;67544.13;;;4.60;96.33
3844;BME280;1937;51.444;6.484;2023-01-27T09:54:52;67613.50;;;4.67;97.22
3844;BME280;1937;51.444;6.484;2023-01-27T09:57:29;67635.38;;;4.77;96.25
3844;BME280;1937;51.444;6.484;2023-01-27T10:00:09;67607.28;;;4.84;95.88
3844;BME280;1937;51.444;6.484;2023-01-27T10:02:52;67603.22;;;4.80;96.32
3844;BME280;1937;51.444;6.484;2023-01-27T10:05:41;67557.94;;;4.74;96.76
3844;BME280;1937;51.444;6.484;2023-01-27T10:08:26;67576.50;;;4.86;96.71
3844;BME280;1937;51.444;6.484;2023-01-27T10:11:09;67632.72;;;4.97;96.46
3844;BME280;1937;51.444;6.484;2023-01-27T10:13:45;67608.03;;;4.89;96.54
3844;BME280;1937;51.444;6.484;2023-01-27T10:16:48;67585.75;;;4.83;96.18
3844;BME280;1937;51.444;6.484;2023-01-27T10:19:29;67551.03;;;4.79;96.13
3844;BME280;1937;51.444;6.484;2023-01-27T10:22:08;67629.34;;;5.05;95.66
3844;BME280;1937;51.444;6.484;2023-01-27T10:24:59;67621.94;;;4.97;95.41
3844;BME280;1937;51.444;6.484;2023-01-27T10:27:34;67600.41;;;4.89;95.17
3844;BME280;1937;51.444;6.484;2023-01-27T10:30:07;67624.63;;;5.01;95.53
3844;BME280;1937;51.444;6.484;2023-01-27T10:32:42;67561.34;;;4.90;94.58
3844;BME280;1937;51.444;6.484;2023-01-27T10:35:17;67589.22;;;5.17;94.76
3844;BME280;1937;51.444;6.484;2023-01-27T10:37:53;67594.84;;;5.24;94.19
3844;BME280;1937;51.444;6.484;2023-01-27T10:40:32;67592.97;;;5.35;94.09
3844;BME280;1937;51.444;6.484;2023-01-27T10:43:06;67591.44;;;5.32;94.17
3844;BME280;1937;51.444;6.484;2023-01-27T10:45:39;67561.00;;;5.12;93.94
3844;BME280;1937;51.444;6.484;2023-01-27T10:48:24;67558.25;;;5.08;94.75
3844;BME280;1937;51.444;6.484;2023-01-27T10:50:59;67543.28;;;5.17;94.11
3844;BME280;1937;51.444;6.484;2023-01-27T10:53:32;67507.97;;;5.13;94.25
3844;BME280;1937;51.444;6.484;2023-01-27T10:56:08;67510.50;;;4.95;93.93
3844;BME280;1937;51.444;6.484;2023-01-27T10:58:44;67564.06;;;5.19;94.34
3844;BME280;1937;51.444;6.484;2023-01-27T11:01:16;67564.78;;;5.24;94.46
3844;BME280;1937;51.444;6.484;2023-01-27T11:03:50;67499.47;;;5.21;93.93
3844;BME280;1937;51.444;6.484;2023-01-27T11:06:23;67551.19;;;5.32;93.70
3844;BME280;1937;51.444;6.484;2023-01-27T11:08:54;67542.59;;;5.29;93.69
3844;BME280;1937;51.444;6.484;2023-01-27T11:11:28;67549.28;;;5.26;93.41
3844;BME280;1937;51.444;6.484;2023-01-27T11:14:14;67503.16;;;5.04;94.38
3844;BME280;1937;51.444;6.484;2023-01-27T11:16:48;67529.91;;;4.99;94.61
3844;BME280;1937;51.444;6.484;2023-01-27T11:19:23;67530.78;;;5.08;94.54
3844;BME280;1937;51.444;6.484;2023-01-27T11:21:56;67520.38;;;5.10;94.24
3844;BME280;1937;51.444;6.484;2023-01-27T11:24:29;67516.72;;;5.03;94.57
3844;BME280;1937;51.444;6.484;2023-01-27T11:27:09;67494.78;;;4.99;93.76
3844;BME280;1937;51.444;6.484;2023-01-27T11:29:44;67462.78;;;5.00;93.97
3844;BME280;1937;51.444;6.484;2023-01-27T11:32:22;67513.66;;;5.13;94.54
3844;BME280;1937;51.444;6.484;2023-01-27T11:34:59;67471.09;;;4.94;94.50
3844;BME280;1937;51.444;6.484;2023-01-27T11:37:34;67540.00;;;5.12;94.76
3844;BME280;1937;51.444;6.484;2023-01-27T11:40:04;67516.00;;;5.15;93.99
3844;BME280;1937;51.444;6.484;2023-01-27T11:42:42;67510.78;;;5.28;93.32
3844;BME280;1937;51.444;6.484;2023-01-27T11:45:15;67435.47;;;5.05;93.67
3844;BME280;1937;51.444;6.484;2023-01-27T11:47:46;67489.03;;;5.05;93.13
3844;BME280;1937;51.444;6.484;2023-01-27T11:50:17;67426.13;;;4.97;93.16
3844;BME280;1937;51.444;6.484;2023-01-27T11:52:50;67498.22;;;5.09;93.00
3844;BME280;1937;51.444;6.484;2023-01-27T11:55:25;67460.25;;;5.00;93.25
3844;BME280;1937;51.444;6.484;2023-01-27T11:58:06;67484.81;;;5.15;92.99
3844;BME280;1937;51.444;6.484;2023-01-27T12:00:39;67465.56;;;5.16;92.94
3844;BME280;1937;51.444;6.484;2023-01-27T12:03:15;67411.91;;;5.05;92.60
3844;BME280;1937;51.444;6.484;2023-01-27T12:05:50;67405.78;;;5.08;91.68
3844;BME280;1937;51.444;6.484;2023-01-27T12:08:39;67454.78;;;5.15;92.48
3844;BME280;1937;51.444;6.484;2023-01-27T12:11:23;67389.75;;;5.03;91.67
3844;BME280;1937;51.444;6.484;2023-01-27T12:13:55;67396.91;;;4.96;91.48
3844;BME280;1937;51.444;6.484;2023-01-27T12:16:28;67400.03;;;5.14;91.35
3844;BME280;1937;51.444;6.484;2023-01-27T12:19:03;67322.13;;;5.15;89.60
3844;BME280;1937;51.444;6.484;2023-01-27T12:21:38;67359.44;;;5.30;90.31
3844;BME280;1937;51.444;6.484;2023-01-27T12:24:20;67398.84;;;5.31;90.05
3844;BME280;1937;51.444;6.484;2023-01-27T12:26:51;67380.56;;;5.53;90.54
3844;BME280;1937;51.444;6.484;2023-01-27T12:29:27;67403.00;;;5.63;88.99
3844;BME280;1937;51.444;6.484;2023-01-27T12:32:00;67378.59;;;5.53;88.65
3844;BME280;1937;51.444;6.484;2023-01-27T12:34:31;67321.38;;;5.57;88.04
3844;BME280;1937;51.444;6.484;2023-01-27T12:37:03;67340.69;;;5.67;88.70
3844;BME280;1937;51.444;6.484;2023-01-27T12:39:39;67334.66;;;5.64;88.23
3844;BME280;1937;51.444;6.484;2023-01-27T12:42:37;67349.84;;;5.88;88.00
3844;BME280;1937;51.444;6.484;2023-01-27T12:45:21;67272.81;;;5.74;87.36
3844;BME280;1937;51.444;6.484;2023-01-27T12:47:59;67281.38;;;5.66;86.95
3844;BME280;1937;51.444;6.484;2023-01-27T12:50:29;67228.78;;;5.52;87.78
3844;BME280;1937;51.444;6.484;2023-01-27T12:53:08;67291.13;;;5.59;88.53
3844;BME280;1937;51.444;6.484;2023-01-27T12:55:41;67249.66;;;5.48;87.45
3844;BME280;1937;51.444;6.484;2023-01-27T12:58:37;67223.00;;;5.58;88.19
3844;BME280;1937;51.444;6.484;2023-01-27T13:01:27;67269.97;;;5.54;88.12
3844;BME280;1937;51.444;6.484;2023-01-27T13:04:00;67293.56;;;5.66;87.55
3844;BME280;1937;51.444;6.484;2023-01-27T13:06:32;67221.31;;;5.39;87.07
3844;BME280;1937;51.444;6.484;2023-01-27T13:09:02;67243.63;;;5.56;86.48
3844;BME280;1937;51.444;6.484;2023-01-27T13:11:34;67236.38;;;5.69;86.33
3844;BME280;1937;51.444;6.484;2023-01-27T13:14:12;67222.19;;;5.59;86.38
3844;BME280;1937;51.444;6.484;2023-01-27T13:16:51;67223.34;;;5.60;86.88
3844;BME280;1937;51.444;6.484;2023-01-27T13:19:21;67247.41;;;5.79;86.14
3844;BME280;1937;51.444;6.484;2023-01-27T13:21:54;67221.03;;;5.69;86.37
3844;BME280;1937;51.444;6.484;2023-01-27T13:24:30;67187.69;;;5.54;86.42
3844;BME280;1937;51.444;6.484;2023-01-27T13:27:03;67168.06;;;5.41;86.58
3844;BME280;1937;51.444;6.484;2023-01-27T13:29:35;67234.84;;;5.66;85.80
3844;BME280;1937;51.444;6.484;2023-01-27T13:32:10;67213.81;;;5.54;86.60
3844;BME280;1937;51.444;6.484;2023-01-27T13:34:47;67190.00;;;5.45;86.34
3844;BME280;1937;51.444;6.484;2023-01-27T13:37:23;67177.25;;;5.45;86.65
3844;BME280;1937;51.444;6.484;2023-01-27T13:40:00;67219.28;;;5.57;86.55
3844;BME280;1937;51.444;6.484;2023-01-27T13:42:34;67182.38;;;5.67;85.16
3844;BME280;1937;51.444;6.484;2023-01-27T13:45:09;67155.69;;;5.66;85.36
3844;BME280;1937;51.444;6.484;2023-01-27T13:47:47;67210.75;;;5.87;85.36
3844;BME280;1937;51.444;6.484;2023-01-27T13:50:22;67143.28;;;5.57;84.78
3844;BME280;1937;51.444;6.484;2023-01-27T13:52:56;67120.63;;;5.38;83.69
3844;BME280;1937;51.444;6.484;2023-01-27T13:55:46;67119.59;;;5.41;84.40
3844;BME280;1937;51.444;6.484;2023-01-27T13:58:20;67083.16;;;5.47;84.26
3844;BME280;1937;51.444;6.484;2023-01-27T14:01:01;67106.72;;;5.48;84.61
3844;BME280;1937;51.444;6.484;2023-01-27T14:03:43;67108.13;;;5.58;84.73